Flight Track Log - Related Links

Times and Time Zones

All times are in EDT time to prevent confusion due to time zone crossing. See the N884FT flight status page for this flight to view local times or setup timezone preferences in your user account.

Time Position Orientation Groundspeed Altitude Reporting Facility
EDT Latitude Longitude Course Direction KTS MPH feet Rate Location/Type
Fri 07:33:11 PM 28.1000 -80.6333 139° Southeast 93 107 500  Level Orlando TRACON
Fri 07:34:47 PM 28.0833 -80.6167 139° Southeast 125 144 2,000 692 Climbing Orlando TRACON
Fri 07:36:39 PM 28.0356 -80.6511 212° Southwest 113 130 2,900 523 Climbing Miami Center
Fri 07:37:39 PM 28.0039 -80.6711 209° Southwest 118 136 3,500 600 Climbing Miami Center
Fri 07:38:39 PM 27.9697 -80.6911 207° Southwest 130 150 4,100 600 Climbing Miami Center
Fri 07:39:39 PM 27.9361 -80.7017 196° South 130 150 4,700 600 Climbing Miami Center
Fri 07:40:39 PM 27.8986 -80.7053 185° South 135 155 5,300 550 Climbing Miami Center
Fri 07:41:39 PM 27.8669 -80.7111 189° South 135 155 5,800 600 Climbing Miami Center
Fri 07:42:39 PM 27.8314 -80.7169 188° South 135 155 6,500 600 Climbing Miami Center
Fri 07:43:39 PM 27.7936 -80.7206 185° South 135 155 7,000 500 Climbing Miami Center
Fri 07:44:39 PM 27.7603 -80.7217 182° South 129 148 7,500 450 Climbing Miami Center
Fri 07:45:39 PM 27.7250 -80.7158 172° South 124 143 7,900 300 Climbing Miami Center
Fri 07:46:39 PM 27.6919 -80.7075 167° South 124 143 8,100 100 Climbing Miami Center
Fri 07:47:39 PM 27.6464 -80.6919 163° South 146 168 8,100  Level Miami Center
Fri 07:48:39 PM 27.6031 -80.6742 160° South 157 181 8,100  Level Miami Center
Fri 07:49:39 PM 27.5594 -80.6611 165° South 162 186 8,100  Level Miami Center
Fri 07:50:39 PM 27.5158 -80.6525 170° South 162 186 8,100  Level Miami Center
Fri 07:51:39 PM 27.4742 -80.6442 170° South 162 186 8,100  Level Miami Center
Fri 07:52:39 PM 27.4225 -80.6331 169° South 168 193 8,100 50 Level Miami Center
Fri 07:53:39 PM 27.3789 -80.6247 170° South 168 193 8,200  Climbing Miami Center
Fri 07:54:39 PM 27.3331 -80.6161 171° South 168 193 8,100 -50 Descending Miami Center
Fri 07:55:39 PM 27.2872 -80.6078 171° South 168 193 8,100  Level Miami Center
Fri 07:56:39 PM 27.2458 -80.5992 170° South 163 188 8,100  Level Miami Center
Fri 07:57:39 PM 27.1958 -80.5931 174° South 163 188 8,100  Level Miami Center
Fri 07:58:39 PM 27.1503 -80.5844 170° South 163 188 8,100  Level Miami Center
Fri 07:59:39 PM 27.1064 -80.5786 173° South 163 188 8,100  Level Miami Center
Fri 08:00:39 PM 27.0669 -80.5703 169° South 163 188 8,100 -50 Level Miami Center
Fri 08:01:39 PM 27.0233 -80.5664 175° South 163 188 8,000 -23 Descending Miami Center
Fri 08:03:00 PM 26.9741 -80.5889 202° Southwest  Level FlightAware Approximate
Fri 08:05:03 PM 26.8661 -80.5825 204° Southwest 160 184 8,000  Level Miami Center
Fri 08:06:03 PM 26.8222 -80.5881 186° South 160 184 8,000  Level Miami Center
Fri 08:07:03 PM 26.7719 -80.5911 183° South 160 184 8,000  Level Miami Center
Fri 08:08:03 PM 26.7364 -80.5969 188° South 160 184 8,000  Level Miami Center
Fri 08:09:03 PM 26.6819 -80.5997 183° South 171 197 8,000  Level Miami Center
Fri 08:10:00 PM 26.7219 -80.7134 204° Southwest  Level Estimated
Fri 08:10:03 PM 26.6442 -80.6081 191° South 166 191 8,000  Level Miami Center
Fri 08:11:41 PM 26.5628 -80.6100 181° South 168 193 7,800 -197 Descending Miami Center
Fri 08:12:05 PM 26.5461 -80.6072 172° South 171 197 7,600 -380 Descending Miami Center
Fri 08:13:00 PM 26.5003 -80.6056 178° South 176 203 7,300 -155 Descending Miami Center
Fri 08:14:01 PM 26.4597 -80.6344 213° Southwest 166 191 7,300 98 Level Miami Center
Fri 08:15:02 PM 26.4194 -80.6611 211° Southwest 165 190 7,500 295 Climbing Miami Center
Fri 08:16:03 PM 26.3853 -80.6831 210° Southwest 144 166 7,900 246 Climbing Miami Center
Fri 08:17:04 PM 26.3472 -80.7050 207° Southwest 151 174 8,000 45 Climbing Miami Center
Fri 08:18:15 PM 26.3028 -80.7314 208° Southwest 164 189 8,000 -49 Level Miami Center
Fri 08:19:06 PM 26.2667 -80.7533 209° Southwest 164 189 7,900  Descending Miami Center
Fri 08:20:06 PM 26.2264 -80.7753 206° Southwest 161 185 8,000 52 Climbing Miami Center
Fri 08:21:02 PM 26.1881 -80.7994 209° Southwest 159 183 8,000  Level Miami Center
Fri 08:22:08 PM 26.1456 -80.8258 209° Southwest 165 190 8,000  Level Miami Center
Fri 08:22:51 PM 26.1200 -80.8411 208° Southwest 165 190 8,000  Level Miami Center
Fri 08:23:15 PM 26.0989 -80.8519 205° Southwest 163 188 8,000  Level Miami Center
Fri 08:23:51 PM 26.0819 -80.8631 210° Southwest 160 184 8,000  Level Miami Center
Fri 08:24:16 PM 26.0586 -80.8739 203° Southwest 160 184 8,000 -100 Level Miami Center
Fri 08:24:51 PM 26.0436 -80.8872 219° Southwest 160 184 7,900 -63 Descending Miami Center
Fri 08:25:51 PM 26.0033 -80.9111 208° Southwest 160 184 7,900 50 Level Miami Center
Fri 08:26:51 PM 25.9631 -80.9353 208° Southwest 166 191 8,000 50 Climbing Miami Center
Fri 08:27:51 PM 25.9225 -80.9594 208° Southwest 166 191 8,000  Level Miami Center
Fri 08:28:51 PM 25.8803 -80.9833 207° Southwest 166 191 8,000 -50 Level Miami Center
Fri 08:29:51 PM 25.8383 -80.9864 184° South 161 185 7,900  Descending Miami Center
Fri 08:30:51 PM 25.7922 -80.9942 189° South 156 180 8,000 50 Climbing Miami Center
Fri 08:31:51 PM 25.7483 -80.9972 184° South 162 186 8,000  Level Miami Center
Fri 08:32:51 PM 25.7042 -81.0025 186° South 162 186 8,000  Level Miami Center
Fri 08:33:51 PM 25.6600 -81.0125 192° South 162 186 8,000  Level Miami Center
Fri 08:34:51 PM 25.6217 -81.0389 212° Southwest 162 186 8,000 -50 Level Miami Center
Fri 08:35:51 PM 25.5814 -81.0653 211° Southwest 172 198 7,900  Descending Miami Center
Fri 08:36:51 PM 25.5408 -81.0936 212° Southwest 172 198 8,000 -50 Climbing Miami Center
Fri 08:37:51 PM 25.5003 -81.1200 210° Southwest 172 198 7,800 -300 Descending Miami Center
Fri 08:38:51 PM 25.4525 -81.1136 173° South 160 184 7,400 -400 Descending Miami Center
Fri 08:39:51 PM 25.4044 -81.1097 176° South 168 193 7,000 -250 Descending Miami Center
Fri 08:40:51 PM 25.3683 -81.1314 208° Southwest 163 188 6,900 -50 Descending Miami Center
Fri 08:41:51 PM 25.3319 -81.1644 219° Southwest 163 188 6,900  Level Miami Center
Fri 08:42:51 PM 25.2956 -81.1931 215° Southwest 168 193 6,900  Level Miami Center
Fri 08:43:51 PM 25.2611 -81.2264 221° Southwest 168 193 6,900  Level Miami Center
Fri 08:44:51 PM 25.2269 -81.2528 215° Southwest 163 188 6,900  Level Miami Center
Fri 08:45:51 PM 25.1906 -81.2833 217° Southwest 163 188 6,900  Level Miami Center
Fri 08:46:51 PM 25.1544 -81.3097 213° Southwest 158 182 6,900  Level Miami Center
Fri 08:47:51 PM 25.1200 -81.3383 217° Southwest 163 188 6,900  Level Miami Center
Fri 08:48:51 PM 25.0836 -81.3667 215° Southwest 163 188 6,900  Level Miami Center
Fri 08:50:03 PM 25.0389 -81.3994 214° Southwest 163 188 6,900  Level Miami Center
Fri 08:51:03 PM 25.0025 -81.4256 213° Southwest 163 188 6,900  Level Miami Center
Fri 08:52:03 PM 24.9661 -81.4542 215° Southwest 163 188 6,900  Level Miami Center
Fri 08:53:03 PM 24.9297 -81.4803 213° Southwest 163 188 6,900 -50 Level Miami Center
Fri 08:54:03 PM 24.8914 -81.5086 214° Southwest 163 188 6,800 -150 Descending Miami Center
Fri 08:55:03 PM 24.8508 -81.5344 210° Southwest 163 188 6,600 -200 Descending Miami Center
Fri 08:56:03 PM 24.8203 -81.5744 230° Southwest 173 199 6,400 -500 Descending Miami Center
Fri 08:57:03 PM 24.7939 -81.6214 238° Southwest 179 206 5,600 -800 Descending Miami Center
Fri 08:58:03 PM 24.7650 -81.6683 236° Southwest 189 217 4,800 -700 Descending Miami Center
Fri 08:59:03 PM 24.7303 -81.7106 228° Southwest 189 217 4,200 -600 Descending Miami Center
Fri 09:01:00 PM 24.6465 -81.6801 211° Southwest  Level FlightAware Approximate
Fri 09:08:00 PM 24.5500 -81.7500 214° Southwest  Level FlightAware Approximate
Fri 09:09:00 PM 24.5561 -81.7596 214° Southwest  Level Estimated
Fri 09:10:00 PM 24.5561 -81.7596 214° Southwest  Level Estimated
Fri 09:11:00 PM 24.5561 -81.7596 214° Southwest  Level Estimated
Fri 09:12:00 PM 24.5561 -81.7596 214° Southwest  Level Estimated

Login

Don't have an account? Register now (free) for customized features, flight alerts, and more!